This is the latest recevied weather packets stored in our database for station/object CW2401. If no packets are shown the sender has not sent any weather packets the latest 10 day(s).
| Time | Temp. | Humidity | Pressure | Rain* | Wind** | Luminosity | Snow |
|---|---|---|---|---|---|---|---|
| 1777046346 | 27.78° C | 46% | 1012.4 hPa | 0 mm | - | - | - |
| 1777045867 | 27.78° C | 44% | 1012.5 hPa | 0 mm | - | - | - |
| 1777045506 | 27.78° C | 43% | 1012.5 hPa | 0 mm | - | - | - |
| 1777043819 | 27.78° C | 46% | 1012.6 hPa | 0 mm | - | - | - |
| 1777043457 | 27.78° C | 43% | 1012.7 hPa | 0 mm | - | - | - |
| 1777043216 | 27.22° C | 47% | 1012.7 hPa | 0 mm | - | - | - |
| 1777042974 | 27.78° C | 48% | 1012.7 hPa | 0 mm | - | - | - |
| 1777042615 | 27.78° C | 48% | 1012.8 hPa | 0 mm | - | - | - |
| 1777042494 | 27.78° C | 46% | 1012.8 hPa | 0 mm | - | - | - |
| 1777042252 | 27.78° C | 47% | 1012.9 hPa | 0 mm | - | - | - |
| 1777041410 | 27.78° C | 47% | 1013 hPa | 0 mm | - | - | - |
| 1777040208 | 26.11° C | 52% | 1013.2 hPa | 0 mm | - | - | - |
| 1777039728 | 25.56° C | 54% | 1013.3 hPa | 0 mm | - | - | - |
| 1777039248 | 24.44° C | 56% | 1013.4 hPa | 0 mm | - | - | - |
| 1777038887 | 23.89° C | 59% | 1013.4 hPa | 0 mm | - | - | - |
| 1777038767 | 23.89° C | 62% | 1013.5 hPa | 0 mm | - | - | - |
| 1777038168 | 22.22° C | 66% | 1013.6 hPa | 0 mm | - | - | - |
| 1777037809 | 20.56° C | 71% | 1013.6 hPa | 0 mm | - | - | - |
| 1777036008 | 16.11° C | 85% | 1013.8 hPa | 0 mm | - | - | - |
| 1777034688 | 14.44° C | 87% | 1013.8 hPa | 0 mm | - | - | - |
| 1777033600 | 13.33° C | 87% | 1013.8 hPa | 0 mm | - | - | - |
| 1777033116 | 12.78° C | 87% | 1013.8 hPa | 0 mm | - | - | - |
| 1777032997 | 12.78° C | 87% | 1013.8 hPa | 0 mm | - | - | - |
| 1777032751 | 12.78° C | 87% | 1013.8 hPa | 0 mm | - | - | - |
| 1777032634 | 12.78° C | 87% | 1013.8 hPa | 0 mm | - | - | - |
* Rain latest hour (hover to see other rain measurements)
** Current wind speed in m/s (hover to see current wind gust speed)